Time;durP1;ratioP1;P1;durP2;ratioP2;P2;SDS_P1;SDS_P2;PMS_P1;PMS_P2;Temp;Humidity;BMP_temperature;BMP_pressure;BME280_temperature;BME280_humidity;BME280_pressure;Samples;Min_cycle;Max_cycle;Signal;HPM_P1;HPM_P2
2022/11/10 00:00:53;;;;;;;;;;;;;;;8.29;100.00;100324.38;3055838;19;19953;-47
2022/11/10 00:02:16;;;;;;;;;;;;;;;8.30;100.00;100322.59;3056141;19;19942;-48
2022/11/10 00:03:39;;;;;;;;;;;;;;;8.32;100.00;100314.56;3056129;19;19974;-49
2022/11/10 00:05:00;;;;;;;;;;;;;;;8.31;100.00;100324.31;3055729;19;20278;-48
2022/11/10 00:06:23;;;;;;;;;;;;;;;8.32;100.00;100314.56;3055896;19;19939;-49
2022/11/10 00:07:44;;;;;;;;;;;;;;;8.32;100.00;100325.22;3056033;19;19919;-48
2022/11/10 00:09:07;;;;;;;;;;;;;;;8.33;100.00;100329.59;3055219;19;19923;-49
2022/11/10 00:10:28;;;;;;;;;;;;;;;8.33;100.00;100324.25;3055955;19;19918;-48
2022/11/10 00:11:51;;;;;;;;;;;;;;;8.34;100.00;100329.47;3055599;19;19979;-49
2022/11/10 00:13:12;;;;;;;;;;;;;;;8.35;100.00;100327.66;3055726;19;19915;-47
2022/11/10 00:17:46;;;;;;;;;;;;;;;8.36;100.00;100332.91;3054902;19;19957;-47
2022/11/10 00:19:08;;;;;;;;;;;;;;;8.36;100.00;100326.72;3055825;19;19923;-49
2022/11/10 00:20:31;;;;;;;;;;;;;;;8.33;100.00;100335.75;3056001;19;19919;-50
2022/11/10 00:21:54;;;;;;;;;;;;;;;8.32;100.00;100343.81;3055650;19;19930;-49
2022/11/10 00:23:17;;;;;;;;;;;;;;;8.30;100.00;100350.03;3055718;19;20006;-49
2022/11/10 00:24:40;;;;;;;;;;;;;;;8.28;100.00;100354.56;3055348;19;19925;-49
2022/11/10 00:26:04;;;;;;;;;;;;;;;8.27;100.00;100355.50;3055424;19;19958;-50
2022/11/10 00:27:24;;;;;;;;;;;;;;;8.23;100.00;100361.94;3055933;19;20275;-50
2022/11/10 00:28:48;;;;;;;;;;;;;;;8.20;100.00;100359.47;3055752;19;20269;-47
2022/11/10 00:30:08;;;;;;;;;;;;;;;8.16;100.00;100349.91;3055634;19;19918;-47
2022/11/10 00:31:31;;;;;;;;;;;;;;;8.13;100.00;100360.72;3055776;19;19919;-48
2022/11/10 00:32:54;;;;;;;;;;;;;;;8.13;100.00;100358.06;3055919;19;20026;-50
2022/11/10 00:34:17;;;;;;;;;;;;;;;8.11;100.00;100354.63;3055742;19;19922;-48
2022/11/10 00:35:40;;;;;;;;;;;;;;;8.12;100.00;100353.69;3055276;19;19954;-47
2022/11/10 00:37:03;;;;;;;;;;;;;;;8.12;100.00;100350.16;3055696;19;19926;-50
2022/11/10 00:38:24;;;;;;;;;;;;;;;8.12;100.00;100353.69;3055572;19;19957;-49
2022/11/10 00:39:46;;;;;;;;;;;;;;;8.13;100.00;100352.75;3055711;19;19961;-49
2022/11/10 00:41:09;;;;;;;;;;;;;;;8.17;100.00;100354.31;3055640;19;19935;-50
2022/11/10 00:42:32;;;;;;;;;;;;;;;8.20;100.00;100359.47;3055414;19;20261;-50
2022/11/10 00:43:53;;;;;;;;;;;;;;;8.24;100.00;100355.66;3055650;19;19962;-50
2022/11/10 00:45:15;;;;;;;;;;;;;;;8.30;100.00;100359.81;3055559;19;19923;-47
2022/11/10 00:46:38;;;;;;;;;;;;;;;8.36;100.00;100353.31;3055225;19;20338;-49
2022/11/10 00:47:58;;;;;;;;;;;;;;;8.42;100.00;100358.31;3055582;19;20318;-48
2022/11/10 00:49:21;;;;;;;;;;;;;;;8.46;100.00;100350.06;3055561;19;19930;-48
2022/11/10 00:50:44;;;;;;;;;;;;;;;8.49;100.00;100355.22;3055714;19;19931;-51
2022/11/10 00:52:07;;;;;;;;;;;;;;;8.54;100.00;100357.66;3055532;19;19930;-49
2022/11/10 00:53:30;;;;;;;;;;;;;;;8.57;100.00;100357.47;3055684;19;19935;-48
2022/11/10 00:54:53;;;;;;;;;;;;;;;8.60;100.00;100357.28;3055453;19;19919;-49
2022/11/10 00:56:14;;;;;;;;;;;;;;;8.62;100.00;100361.59;3058387;19;19926;-48
2022/11/10 00:57:37;;;;;;;;;;;;;;;8.65;100.00;100365.88;3058709;19;19953;-50
2022/11/10 00:59:00;;;;;;;;;;;;;;;8.66;100.00;100367.59;3058398;19;19926;-49
2022/11/10 01:00:23;;;;;;;;;;;;;;;8.66;100.00;100372.94;3058571;19;19945;-51
2022/11/10 01:01:43;;;;;;;;;;;;;;;8.62;100.00;100360.72;3058429;19;19923;-50
2022/11/10 01:03:06;;;;;;;;;;;;;;;8.69;100.00;100367.44;3058419;19;19915;-49
2022/11/10 01:04:27;;;;;;;;;;;;;;;8.69;100.00;100367.44;3058405;19;19949;-48
2022/11/10 01:05:50;;;;;;;;;;;;;;;8.71;100.00;100362.88;3057381;19;19915;-49
2022/11/10 01:07:12;;;;;;;;;;;;;;;8.73;100.00;100357.47;3058065;19;19919;-52
2022/11/10 01:08:36;;;;;;;;;;;;;;;8.75;100.00;100364.44;3058755;19;20322;-49
2022/11/10 01:09:59;;;;;;;;;;;;;;;8.76;100.00;100370.59;3058031;19;19927;-49
2022/11/10 01:11:23;;;;;;;;;;;;;;;8.76;100.00;100360.81;3058128;19;19990;-48
2022/11/10 01:12:46;;;;;;;;;;;;;;;8.79;100.00;100363.31;3057875;19;20313;-47
2022/11/10 01:14:10;;;;;;;;;;;;;;;8.81;100.00;100369.41;3058145;19;20436;-47
2022/11/10 01:15:32;;;;;;;;;;;;;;;8.82;100.00;100359.59;3057944;19;20255;-47
2022/11/10 01:16:55;;;;;;;;;;;;;;;8.82;100.00;100363.13;3058611;19;19923;-48
2022/11/10 01:18:18;;;;;;;;;;;;;;;8.85;100.00;100370.94;3058231;19;19927;-49
2022/11/10 01:19:42;;;;;;;;;;;;;;;8.86;100.00;100370.00;3057961;19;19991;-50
2022/11/10 01:21:03;;;;;;;;;;;;;;;8.89;100.00;100376.97;3057431;19;19932;-49
2022/11/10 01:22:25;;;;;;;;;;;;;;;8.89;100.00;100369.84;3057472;19;19923;-48
2022/11/10 01:23:46;;;;;;;;;;;;;;;8.91;100.00;100367.94;3058078;19;19918;-47
2022/11/10 01:25:09;;;;;;;;;;;;;;;8.94;100.00;100372.22;3058671;19;20020;-49
2022/11/10 01:26:32;;;;;;;;;;;;;;;8.94;100.00;100369.56;3057918;19;19919;-48
2022/11/10 01:27:55;;;;;;;;;;;;;;;8.96;100.00;100365.88;3058156;19;19915;-51
2022/11/10 01:29:17;;;;;;;;;;;;;;;9.00;100.00;100367.41;3057680;19;19950;-49
2022/11/10 01:30:37;;;;;;;;;;;;;;;9.03;100.00;100367.25;3057696;19;19998;-50
2022/11/10 01:32:00;;;;;;;;;;;;;;;9.08;100.00;100368.78;3058174;19;19949;-50
2022/11/10 01:33:23;;;;;;;;;;;;;;;9.11;100.00;100369.47;3057443;19;19919;-47
2022/11/10 01:34:44;;;;;;;;;;;;;;;9.14;100.00;100371.09;3058202;19;20534;-47
2022/11/10 01:36:08;;;;;;;;;;;;;;;9.17;100.00;100368.25;3058294;19;19978;-49
2022/11/10 01:37:31;;;;;;;;;;;;;;;9.20;100.00;100368.06;3057941;19;19922;-48
2022/11/10 01:38:51;;;;;;;;;;;;;;;9.23;100.00;100362.56;3057931;19;19925;-48
2022/11/10 01:40:14;;;;;;;;;;;;;;;9.28;100.00;100371.16;3058048;19;19923;-46
2022/11/10 01:41:37;;;;;;;;;;;;;;;9.31;100.00;100365.63;3058042;19;20555;-51
2022/11/10 01:42:57;;;;;;;;;;;;;;;9.33;100.00;100369.06;3057949;19;19923;-49
2022/11/10 01:44:22;;;;;;;;;;;;;;;9.35;100.00;100367.19;3058062;19;19929;-48
2022/11/10 01:45:44;;;;;;;;;;;;;;;9.33;100.00;100358.41;3058003;19;19919;-50
2022/11/10 01:47:07;;;;;;;;;;;;;;;9.39;100.00;100371.41;3057866;19;19978;-47
2022/11/10 01:48:49;;;;;;;;;;;;;;;9.41;100.00;100372.16;3058222;19;19941;-50
2022/11/10 01:50:10;;;;;;;;;;;;;;;9.44;100.00;100376.44;3057938;19;19978;-50
2022/11/10 01:51:37;;;;;;;;;;;;;;;9.46;100.00;100375.41;3057334;19;19923;-49
2022/11/10 01:52:59;;;;;;;;;;;;;;;9.48;100.00;100378.84;3056847;19;19927;-52
2022/11/10 01:54:23;;;;;;;;;;;;;;;9.51;100.00;100377.81;3057686;19;20598;-49
2022/11/10 01:55:44;;;;;;;;;;;;;;;9.51;100.00;100373.34;3057902;19;19919;-50
2022/11/10 01:57:09;;;;;;;;;;;;;;;9.54;100.00;100375.78;3057773;19;20641;-52
2022/11/10 01:58:33;;;;;;;;;;;;;;;9.56;100.00;100381.91;3058013;19;19945;-49
2022/11/10 01:59:55;;;;;;;;;;;;;;;9.60;100.00;100378.13;3057786;19;19938;-50
2022/11/10 02:01:18;;;;;;;;;;;;;;;9.64;100.00;100385.00;3057316;19;19930;-48
2022/11/10 02:02:57;;;;;;;;;;;;;;;9.66;100.00;100377.72;3058157;19;20011;-48
2022/11/10 02:04:20;;;;;;;;;;;;;;;9.70;100.00;100387.28;3056832;19;19922;-49
2022/11/10 02:05:41;;;;;;;;;;;;;;;9.73;100.00;100388.91;3057111;19;19922;-50
2022/11/10 02:07:04;;;;;;;;;;;;;;;9.74;100.00;100390.63;3056756;19;19930;-49
2022/11/10 02:08:27;;;;;;;;;;;;;;;9.77;100.00;100384.25;3057178;19;19923;-49
2022/11/10 02:09:51;;;;;;;;;;;;;;;9.78;100.00;100386.81;3057607;19;19919;-47
2022/11/10 02:11:11;;;;;;;;;;;;;;;9.79;100.00;100387.66;3057584;19;19923;-48
2022/11/10 02:12:39;;;;;;;;;;;;;;;9.81;100.00;100380.44;3057638;19;19938;-50
2022/11/10 02:14:02;;;;;;;;;;;;;;;9.83;100.00;100390.06;3056909;19;19930;-48
2022/11/10 02:15:23;;;;;;;;;;;;;;;9.85;100.00;100390.84;3057837;19;20335;-51
2022/11/10 02:16:45;;;;;;;;;;;;;;;9.87;100.00;100396.06;3057480;19;19922;-47
2022/11/10 02:18:05;;;;;;;;;;;;;;;9.88;100.00;100392.47;3057450;19;19915;-49
2022/11/10 02:19:29;;;;;;;;;;;;;;;9.90;100.00;100401.22;3057672;19;19918;-46
2022/11/10 02:20:52;;;;;;;;;;;;;;;9.91;100.00;100402.91;3057412;19;19915;-47
2022/11/10 02:22:12;;;;;;;;;;;;;;;9.91;100.00;100397.59;3057728;19;19926;-49
2022/11/10 02:23:38;;;;;;;;;;;;;;;9.91;100.00;100403.78;3057180;19;19971;-48
2022/11/10 02:25:01;;;;;;;;;;;;;;;9.92;100.00;100404.63;3057299;19;20430;-51
2022/11/10 02:26:25;;;;;;;;;;;;;;;9.93;100.00;100411.69;3056992;19;19923;-49
2022/11/10 02:27:45;;;;;;;;;;;;;;;9.91;100.00;100409.09;3057950;19;19923;-50
2022/11/10 02:29:08;;;;;;;;;;;;;;;9.91;100.00;100410.91;3057365;19;19923;-49
2022/11/10 02:30:28;;;;;;;;;;;;;;;9.90;100.00;100406.56;3057199;19;20358;-50
2022/11/10 02:31:51;;;;;;;;;;;;;;;9.90;100.00;100414.56;3057271;19;19914;-47
2022/11/10 02:33:12;;;;;;;;;;;;;;;9.89;100.00;100420.84;3057128;19;20265;-48
2022/11/10 02:34:34;;;;;;;;;;;;;;;9.89;100.00;100423.50;3056970;19;19929;-50
2022/11/10 02:35:55;;;;;;;;;;;;;;;9.86;100.00;100421.88;3057422;19;19922;-50
2022/11/10 02:37:17;;;;;;;;;;;;;;;9.85;100.00;100420.16;3057308;19;19915;-48
2022/11/10 02:38:38;;;;;;;;;;;;;;;9.83;100.00;100422.03;3057221;19;19989;-50
2022/11/10 02:40:01;;;;;;;;;;;;;;;9.83;100.00;100423.84;3057043;19;20312;-51
2022/11/10 02:41:21;;;;;;;;;;;;;;;9.82;100.00;100424.81;3056939;19;20819;-51
2022/11/10 02:42:44;;;;;;;;;;;;;;;9.80;100.00;100426.69;3056976;19;19941;-50
2022/11/10 02:44:07;;;;;;;;;;;;;;;9.79;100.00;100433.81;3057192;19;19983;-50
2022/11/10 02:45:30;;;;;;;;;;;;;;;9.79;100.00;100431.16;3057019;19;19927;-48
2022/11/10 02:46:53;;;;;;;;;;;;;;;9.78;100.00;100428.63;3057193;19;19929;-51
2022/11/10 02:48:14;;;;;;;;;;;;;;;9.80;100.00;100432.03;3057399;19;19918;-48
2022/11/10 02:49:37;;;;;;;;;;;;;;;9.82;100.00;100441.66;3056733;19;19919;-48
2022/11/10 02:51:00;;;;;;;;;;;;;;;9.84;100.00;100433.56;3057225;19;19919;-47
2022/11/10 02:52:22;;;;;;;;;;;;;;;9.87;100.00;100434.25;3057352;19;19926;-49
2022/11/10 02:53:45;;;;;;;;;;;;;;;9.91;100.00;100437.56;3056632;19;19919;-50
2022/11/10 02:55:06;;;;;;;;;;;;;;;9.93;100.00;100435.69;3057422;19;19941;-50
2022/11/10 02:56:29;;;;;;;;;;;;;;;9.94;100.00;100432.91;3057133;19;19918;-48
2022/11/10 02:57:49;;;;;;;;;;;;;;;9.97;100.00;100432.75;3056920;19;20047;-47
2022/11/10 02:59:12;;;;;;;;;;;;;;;9.98;100.00;100436.28;3057052;19;19926;-49
2022/11/10 03:00:32;;;;;;;;;;;;;;;9.99;100.00;100428.19;3056712;19;20295;-47
2022/11/10 03:01:55;;;;;;;;;;;;;;;10.01;100.00;100428.09;3056294;19;19914;-47
2022/11/10 03:03:15;;;;;;;;;;;;;;;10.02;100.00;100443.16;3057082;19;20027;-51
2022/11/10 03:04:39;;;;;;;;;;;;;;;10.01;100.00;100436.09;3056818;19;19922;-50
2022/11/10 03:06:01;;;;;;;;;;;;;;;10.00;100.00;100434.38;3056784;19;20479;-49
2022/11/10 03:07:25;;;;;;;;;;;;;;;9.99;100.00;100436.19;3056609;19;19999;-50
2022/11/10 03:08:47;;;;;;;;;;;;;;;9.99;100.00;100433.53;3056106;19;20359;-50
2022/11/10 03:10:10;;;;;;;;;;;;;;;9.99;100.00;100433.53;3056770;19;19975;-48
2022/11/10 03:11:31;;;;;;;;;;;;;;;10.00;100.00;100440.56;3056877;19;19949;-50
2022/11/10 03:12:56;;;;;;;;;;;;;;;10.01;100.00;100441.44;3056257;19;20345;-48
2022/11/10 03:14:16;;;;;;;;;;;;;;;9.99;100.00;100436.19;3056166;19;19925;-51
2022/11/10 03:15:39;;;;;;;;;;;;;;;10.00;100.00;100437.03;3056847;19;19945;-50
2022/11/10 03:17:00;;;;;;;;;;;;;;;10.00;100.00;100440.56;3056509;19;19919;-48
2022/11/10 03:18:22;;;;;;;;;;;;;;;9.99;100.00;100441.50;3054679;19;20372;-48
2022/11/10 03:19:42;;;;;;;;;;;;;;;9.98;100.00;100444.28;3056770;19;19961;-50
2022/11/10 03:21:06;;;;;;;;;;;;;;;9.97;100.00;100442.56;3056681;19;19936;-49
2022/11/10 03:22:26;;;;;;;;;;;;;;;9.97;100.00;100442.56;3056692;19;20313;-49
2022/11/10 03:23:49;;;;;;;;;;;;;;;9.96;100.00;100443.50;3056652;19;19990;-48
2022/11/10 03:25:09;;;;;;;;;;;;;;;9.94;100.00;100446.25;3056458;19;19937;-50
2022/11/10 03:26:32;;;;;;;;;;;;;;;9.97;100.00;100453.22;3056396;19;19923;-51
2022/11/10 03:27:52;;;;;;;;;;;;;;;9.96;100.00;100447.03;3056376;19;19927;-50
2022/11/10 03:29:15;;;;;;;;;;;;;;;9.97;100.00;100453.22;3056528;19;19923;-48
2022/11/10 03:30:35;;;;;;;;;;;;;;;9.98;100.00;100449.59;3056701;19;19990;-51
2022/11/10 03:31:59;;;;;;;;;;;;;;;9.97;100.00;100447.88;3056546;19;19998;-51
2022/11/10 03:33:21;;;;;;;;;;;;;;;9.98;100.00;100447.78;3054441;19;19918;-47
2022/11/10 03:34:43;;;;;;;;;;;;;;;9.99;100.00;100448.66;3055375;19;19945;-48
2022/11/10 03:36:06;;;;;;;;;;;;;;;9.98;100.00;100450.47;3056593;19;19922;-50
2022/11/10 03:37:26;;;;;;;;;;;;;;;10.00;100.00;100445.03;3056056;19;19941;-49
2022/11/10 03:38:49;;;;;;;;;;;;;;;10.02;100.00;100449.31;3056380;19;20310;-50
2022/11/10 03:40:13;;;;;;;;;;;;;;;10.04;100.00;100452.75;3056601;19;19926;-48
2022/11/10 03:41:36;;;;;;;;;;;;;;;10.01;100.00;100446.75;3055998;19;20296;-49
2022/11/10 03:42:59;;;;;;;;;;;;;;;10.03;100.00;100439.50;3056581;19;20050;-47
2022/11/10 03:44:21;;;;;;;;;;;;;;;10.11;100.00;100455.91;3056750;19;20876;-45
2022/11/10 03:45:47;;;;;;;;;;;;;;;10.12;100.00;100460.31;3056097;19;19919;-49
2022/11/10 03:47:10;;;;;;;;;;;;;;;10.15;100.00;100462.75;3056045;19;19915;-48
2022/11/10 03:48:30;;;;;;;;;;;;;;;10.15;100.00;100462.75;3055112;19;19993;-46
2022/11/10 03:49:53;;;;;;;;;;;;;;;10.15;100.00;100460.09;3055846;19;19943;-47
2022/11/10 03:51:16;;;;;;;;;;;;;;;10.19;100.00;100461.66;3056025;19;19939;-49
2022/11/10 03:52:42;;;;;;;;;;;;;;;10.21;100.00;100465.09;3055799;19;20363;-47
2022/11/10 03:54:05;;;;;;;;;;;;;;;10.21;100.00;100465.09;3056174;19;19919;-50
2022/11/10 03:55:28;;;;;;;;;;;;;;;10.24;100.00;100464.94;3055554;19;19926;-50
2022/11/10 03:56:50;;;;;;;;;;;;;;;10.24;100.00;100467.59;3055692;19;19919;-47
2022/11/10 03:58:11;;;;;;;;;;;;;;;10.24;100.00;100470.25;3056085;19;19978;-50
2022/11/10 03:59:35;;;;;;;;;;;;;;;10.22;100.00;100472.16;3056232;19;19950;-49
2022/11/10 04:00:55;;;;;;;;;;;;;;;10.22;100.00;100482.81;3055986;19;20341;-48
2022/11/10 04:02:18;;;;;;;;;;;;;;;10.18;100.00;100481.28;3055735;19;20014;-47
2022/11/10 04:03:41;;;;;;;;;;;;;;;10.18;100.00;100483.06;3056116;19;20380;-48
2022/11/10 04:09:54;;;;;;;;;;;;;;;10.17;100.00;100482.19;3056346;19;19983;-48
2022/11/10 04:15:40;;;;;;;;;;;;;;;10.18;100.00;100475.94;3055907;19;20253;-49
2022/11/10 04:16:08;;;;;;;;;;;;;;;10.25;100.00;100477.31;3055840;19;19923;-47
2022/11/10 04:17:31;;;;;;;;;;;;;;;10.26;100.00;100476.38;3055733;19;19946;-50
2022/11/10 04:18:54;;;;;;;;;;;;;;;10.29;100.00;100480.63;3055730;19;20039;-50
2022/11/10 04:20:15;;;;;;;;;;;;;;;10.30;100.00;100480.53;3055941;19;19919;-51
2022/11/10 04:21:39;;;;;;;;;;;;;;;10.29;100.00;100486.84;3055622;19;19919;-49
2022/11/10 04:24:36;;;;;;;;;;;;;;;10.33;100.00;100493.69;3056277;19;19919;-48
2022/11/10 04:27:40;;;;;;;;;;;;;;;10.39;100.00;100492.47;3055357;19;19925;-50
2022/11/10 04:29:04;;;;;;;;;;;;;;;10.41;100.00;100487.91;3055609;19;19923;-47
2022/11/10 04:30:24;;;;;;;;;;;;;;;10.44;100.00;100480.56;3056235;19;20011;-49
2022/11/10 04:31:47;;;;;;;;;;;;;;;10.48;100.00;100477.72;3058448;19;19923;-47
2022/11/10 04:33:08;;;;;;;;;;;;;;;10.49;100.00;100482.09;3059000;19;19933;-48
2022/11/10 04:34:31;;;;;;;;;;;;;;;10.53;100.00;100491.63;3058801;19;19930;-49
2022/11/10 04:35:52;;;;;;;;;;;;;;;10.55;100.00;100484.38;3057456;19;19929;-49
2022/11/10 04:37:15;;;;;;;;;;;;;;;10.58;100.00;100497.53;3058896;19;20249;-50
2022/11/10 04:38:38;;;;;;;;;;;;;;;10.61;100.00;100494.69;3059161;19;19933;-48
2022/11/10 04:40:00;;;;;;;;;;;;;;;10.61;100.00;100498.22;3058588;19;19934;-49
2022/11/10 04:41:21;;;;;;;;;;;;;;;10.61;100.00;100500.03;3058749;19;20502;-47
2022/11/10 04:42:44;;;;;;;;;;;;;;;10.64;100.00;100506.03;3058735;19;19974;-48
2022/11/10 04:44:07;;;;;;;;;;;;;;;10.68;100.00;100501.34;3058615;19;19923;-46
2022/11/10 04:45:27;;;;;;;;;;;;;;;10.68;100.00;100498.69;3058458;19;20321;-47
2022/11/10 04:46:50;;;;;;;;;;;;;;;10.69;100.00;100500.41;3058800;19;19915;-50
2022/11/10 04:48:10;;;;;;;;;;;;;;;10.69;100.00;100495.06;3058334;19;19919;-48
2022/11/10 04:49:34;;;;;;;;;;;;;;;10.68;100.00;100496.88;3056109;19;19949;-48
2022/11/10 04:50:54;;;;;;;;;;;;;;;10.69;100.00;100497.75;3059589;19;19930;-49
2022/11/10 04:52:17;;;;;;;;;;;;;;;10.68;100.00;100501.34;3057434;19;19970;-48
2022/11/10 04:53:37;;;;;;;;;;;;;;;10.69;100.00;100500.41;3058473;19;19932;-49
2022/11/10 04:55:00;;;;;;;;;;;;;;;10.68;100.00;100501.34;3058365;19;19939;-46
2022/11/10 04:56:24;;;;;;;;;;;;;;;10.67;100.00;100488.97;3058114;19;19926;-47
2022/11/10 04:57:44;;;;;;;;;;;;;;;10.65;100.00;100502.41;3058661;19;19919;-46
2022/11/10 04:59:07;;;;;;;;;;;;;;;10.67;100.00;100504.97;3057152;19;19915;-47
2022/11/10 05:00:27;;;;;;;;;;;;;;;10.67;100.00;100499.66;3058369;19;19930;-49
2022/11/10 05:01:50;;;;;;;;;;;;;;;10.65;100.00;100504.22;3058887;19;19919;-49
2022/11/10 05:03:13;;;;;;;;;;;;;;;10.63;100.00;100498.09;3060117;19;19918;-49
2022/11/10 05:04:36;;;;;;;;;;;;;;;10.64;100.00;100502.50;3058135;19;19941;-47
2022/11/10 05:05:59;;;;;;;;;;;;;;;10.64;100.00;100495.34;3058523;19;20055;-47
2022/11/10 05:07:20;;;;;;;;;;;;;;;10.65;100.00;100501.53;3058040;19;19937;-48
2022/11/10 05:08:43;;;;;;;;;;;;;;;10.64;100.00;100506.03;3058121;19;19946;-47
2022/11/10 05:10:03;;;;;;;;;;;;;;;10.62;100.00;100507.09;3058693;19;19957;-47
2022/11/10 05:11:26;;;;;;;;;;;;;;;10.61;100.00;100506.22;3058166;19;19945;-50
2022/11/10 05:12:47;;;;;;;;;;;;;;;10.61;100.00;100513.38;3058192;19;20286;-49
2022/11/10 05:14:09;;;;;;;;;;;;;;;10.60;100.00;100507.19;3058263;19;20356;-49
2022/11/10 05:15:30;;;;;;;;;;;;;;;10.61;100.00;100500.03;3058310;19;19923;-48
2022/11/10 05:16:53;;;;;;;;;;;;;;;10.61;100.00;100503.56;3058090;19;19923;-48
2022/11/10 05:18:16;;;;;;;;;;;;;;;10.61;100.00;100505.38;3058418;19;19925;-49
2022/11/10 05:19:39;;;;;;;;;;;;;;;10.62;100.00;100517.78;3057570;19;19994;-49
2022/11/10 05:21:02;;;;;;;;;;;;;;;10.61;100.00;100505.38;3057898;19;19931;-48
2022/11/10 05:22:22;;;;;;;;;;;;;;;10.57;100.00;100514.50;3058079;19;20022;-50
2022/11/10 05:23:45;;;;;;;;;;;;;;;10.55;100.00;100511.94;3057813;19;19939;-48
2022/11/10 05:25:05;;;;;;;;;;;;;;;10.54;100.00;100515.53;3058113;19;19919;-50
2022/11/10 05:26:28;;;;;;;;;;;;;;;10.54;100.00;100518.22;3057274;19;19945;-50
2022/11/10 05:27:48;;;;;;;;;;;;;;;10.53;100.00;100520.97;3056848;19;19918;-49
2022/11/10 05:29:11;;;;;;;;;;;;;;;10.51;100.00;100509.53;3057287;19;19919;-50
2022/11/10 05:30:32;;;;;;;;;;;;;;;10.50;100.00;100513.19;3057642;19;19923;-50
2022/11/10 05:31:54;;;;;;;;;;;;;;;10.51;100.00;100523.72;3056937;19;19914;-49
2022/11/10 05:33:17;;;;;;;;;;;;;;;10.51;100.00;100520.19;3057471;19;19998;-50
2022/11/10 05:34:41;;;;;;;;;;;;;;;10.51;100.00;100525.53;3057500;19;19919;-49
2022/11/10 05:36:04;;;;;;;;;;;;;;;10.52;100.00;100533.44;3056670;19;19923;-50
2022/11/10 05:37:24;;;;;;;;;;;;;;;10.50;100.00;100534.53;3056327;19;19919;-49
2022/11/10 05:38:47;;;;;;;;;;;;;;;10.52;100.00;100536.13;3056732;19;20448;-49
2022/11/10 05:40:08;;;;;;;;;;;;;;;10.51;100.00;100533.53;3056801;19;19919;-47
2022/11/10 05:41:31;;;;;;;;;;;;;;;10.52;100.00;100535.25;3056565;19;19986;-49
2022/11/10 05:42:51;;;;;;;;;;;;;;;10.54;100.00;100538.69;3057043;19;19942;-50
2022/11/10 05:44:14;;;;;;;;;;;;;;;10.54;100.00;100541.38;3056928;19;20366;-48
2022/11/10 05:45:37;;;;;;;;;;;;;;;10.55;100.00;100537.75;3058169;19;19919;-48
2022/11/10 05:46:58;;;;;;;;;;;;;;;10.55;100.00;100535.09;3057529;19;19919;-50
2022/11/10 05:48:21;;;;;;;;;;;;;;;10.56;100.00;100539.47;3057912;19;20313;-47
2022/11/10 05:49:41;;;;;;;;;;;;;;;10.54;100.00;100542.22;3058328;19;19915;-48
2022/11/10 05:51:04;;;;;;;;;;;;;;;10.55;100.00;100543.09;3057597;19;19918;-49
2022/11/10 05:52:24;;;;;;;;;;;;;;;10.54;100.00;100546.72;3057626;19;19937;-48
2022/11/10 05:53:47;;;;;;;;;;;;;;;10.55;100.00;100545.75;3057795;19;19926;-49
2022/11/10 05:55:10;;;;;;;;;;;;;;;10.56;100.00;100555.47;3057506;19;19925;-50
2022/11/10 05:56:33;;;;;;;;;;;;;;;10.57;100.00;100552.72;3057256;19;20338;-49
2022/11/10 05:57:56;;;;;;;;;;;;;;;10.59;100.00;100552.63;3057691;19;19938;-48
2022/11/10 05:59:20;;;;;;;;;;;;;;;10.60;100.00;100546.34;3057527;19;19923;-47
2022/11/10 06:00:40;;;;;;;;;;;;;;;10.61;100.00;100554.28;3057946;19;19931;-48
2022/11/10 06:02:03;;;;;;;;;;;;;;;10.61;100.00;100564.09;3057822;19;19918;-48
2022/11/10 06:03:26;;;;;;;;;;;;;;;10.62;100.00;100564.00;3056570;19;19950;-48
2022/11/10 06:04:47;;;;;;;;;;;;;;;10.63;100.00;100570.16;3054135;19;20468;-49
2022/11/10 06:06:10;;;;;;;;;;;;;;;10.65;100.00;100570.94;3058349;19;20241;-47
2022/11/10 06:07:30;;;;;;;;;;;;;;;10.64;100.00;100569.22;3057440;19;19946;-51
2022/11/10 06:08:55;;;;;;;;;;;;;;;10.65;100.00;100570.94;3057376;19;19918;-49
2022/11/10 06:10:15;;;;;;;;;;;;;;;10.65;100.00;100576.28;3058057;19;20554;-48
2022/11/10 06:11:38;;;;;;;;;;;;;;;10.65;100.00;100576.28;3057421;19;19939;-47
2022/11/10 06:13:01;;;;;;;;;;;;;;;10.65;100.00;100574.47;3057304;19;20375;-47
2022/11/10 06:14:24;;;;;;;;;;;;;;;10.69;100.00;100572.47;3057272;19;19919;-48
2022/11/10 06:15:46;;;;;;;;;;;;;;;10.70;100.00;100579.53;3057128;19;19943;-46
2022/11/10 06:17:09;;;;;;;;;;;;;;;10.73;100.00;100584.69;3056613;19;19919;-49
2022/11/10 06:18:33;;;;;;;;;;;;;;;10.75;100.00;100582.75;3057479;19;19918;-49
2022/11/10 06:19:55;;;;;;;;;;;;;;;10.76;100.00;100584.47;3057309;19;19942;-49
2022/11/10 06:21:19;;;;;;;;;;;;;;;10.79;100.00;100592.31;3057405;19;19926;-48
2022/11/10 06:22:41;;;;;;;;;;;;;;;10.81;100.00;100590.41;3057220;19;19919;-47
2022/11/10 06:24:04;;;;;;;;;;;;;;;10.82;100.00;100594.81;3057466;19;20380;-50
2022/11/10 06:25:27;;;;;;;;;;;;;;;10.82;100.00;100589.47;3057491;19;19997;-49
2022/11/10 06:26:50;;;;;;;;;;;;;;;10.84;100.00;100587.56;3057239;19;19923;-49
2022/11/10 06:28:13;;;;;;;;;;;;;;;10.87;100.00;100595.38;3057361;19;19946;-49
2022/11/10 06:29:36;;;;;;;;;;;;;;;10.89;100.00;100596.13;3057647;19;19919;-47
2022/11/10 06:30:59;;;;;;;;;;;;;;;10.91;100.00;100598.72;3056962;19;19914;-47
2022/11/10 06:32:23;;;;;;;;;;;;;;;10.90;100.00;100600.53;3057368;19;19922;-53
2022/11/10 06:33:47;;;;;;;;;;;;;;;10.91;100.00;100604.91;3057517;19;19919;-50
2022/11/10 06:35:10;;;;;;;;;;;;;;;10.90;100.00;100608.53;3056383;19;19919;-49
2022/11/10 06:36:33;;;;;;;;;;;;;;;10.92;100.00;100616.44;3055264;19;20539;-47
2022/11/10 06:38:00;;;;;;;;;;;;;;;10.92;100.00;100622.66;3057450;19;19943;-48
2022/11/10 06:39:23;;;;;;;;;;;;;;;10.93;100.00;100619.03;3056875;19;19947;-47
2022/11/10 06:40:47;;;;;;;;;;;;;;;10.95;100.00;100627.81;3056133;19;19979;-47
2022/11/10 06:42:09;;;;;;;;;;;;;;;10.95;100.00;100633.16;3056974;19;19919;-50
2022/11/10 06:43:33;;;;;;;;;;;;;;;10.93;100.00;100634.19;3055804;19;20292;-50
2022/11/10 06:44:55;;;;;;;;;;;;;;;10.92;100.00;100636.00;3057083;19;19925;-48
2022/11/10 06:46:19;;;;;;;;;;;;;;;10.92;100.00;100638.69;3056925;19;19926;-47
2022/11/10 06:47:41;;;;;;;;;;;;;;;10.91;100.00;100636.94;3055876;19;19942;-47
2022/11/10 06:49:04;;;;;;;;;;;;;;;10.94;100.00;100641.25;3055384;19;19935;-49
2022/11/10 06:50:27;;;;;;;;;;;;;;;10.94;100.00;100641.25;3056757;19;19936;-48
2022/11/10 06:51:50;;;;;;;;;;;;;;;10.94;100.00;100636.78;3056095;19;19919;-48
2022/11/10 06:53:13;;;;;;;;;;;;;;;10.94;100.00;100639.44;3054225;19;19946;-50
2022/11/10 06:54:36;;;;;;;;;;;;;;;10.98;100.00;100643.66;3056128;19;19918;-48
2022/11/10 06:55:59;;;;;;;;;;;;;;;11.00;100.00;100641.72;3055427;19;19921;-49
2022/11/10 06:57:19;;;;;;;;;;;;;;;11.02;100.00;100645.16;3055385;19;20318;-48
2022/11/10 06:58:42;;;;;;;;;;;;;;;11.05;100.00;100645.00;3056620;19;19919;-49
2022/11/10 07:00:05;;;;;;;;;;;;;;;11.08;100.00;100644.81;3055142;19;20017;-49
2022/11/10 07:01:28;;;;;;;;;;;;;;;11.10;100.00;100648.25;3056344;19;19919;-49
2022/11/10 07:03:00;;;;;;;;;;;;;;;11.14;100.00;100654.25;3056549;19;19941;-48
2022/11/10 07:04:23;;;;;;;;;;;;;;;11.19;100.00;100652.16;3056830;19;19918;-48
2022/11/10 07:05:46;;;;;;;;;;;;;;;11.23;100.00;100652.84;3056724;19;19941;-49
2022/11/10 07:07:10;;;;;;;;;;;;;;;11.21;100.00;100644.91;3055517;19;19915;-48
2022/11/10 07:08:33;;;;;;;;;;;;;;;11.29;100.00;100650.63;3056129;19;19915;-49
2022/11/10 07:09:56;;;;;;;;;;;;;;;11.32;100.00;100650.44;3056529;19;19926;-47
2022/11/10 07:11:19;;;;;;;;;;;;;;;11.37;100.00;100650.16;3056736;19;20032;-47
2022/11/10 07:12:42;;;;;;;;;;;;;;;11.41;100.00;100638.31;3056691;19;19911;-48
2022/11/10 07:14:05;;;;;;;;;;;;;;;11.44;100.00;100656.84;3056103;19;19923;-50
2022/11/10 07:15:28;;;;;;;;;;;;;;;11.47;100.00;100664.69;3056588;19;19923;-49